createdAt,value
2024-01-21T00:00:51.802Z,1023.09
2024-01-21T00:01:51.109Z,1023.07
2024-01-21T00:02:51.748Z,1023.04
2024-01-21T00:03:51.548Z,1023.06
2024-01-21T00:04:51.426Z,1023.02
2024-01-21T00:05:54.608Z,1023.02
2024-01-21T00:06:54.543Z,1023.04
2024-01-21T00:07:51.765Z,1023.03
2024-01-21T00:08:54.851Z,1022.91
2024-01-21T00:09:55.028Z,1022.90
2024-01-21T00:10:59.793Z,1022.91
2024-01-21T00:11:52.037Z,1022.87
2024-01-21T00:12:53.642Z,1022.91
2024-01-21T00:13:57.176Z,1022.93
2024-01-21T00:14:55.476Z,1022.86
2024-01-21T00:15:55.524Z,1022.85
2024-01-21T00:16:56.641Z,1022.91
2024-01-21T00:17:56.388Z,1022.87
2024-01-21T00:18:53.647Z,1022.86
2024-01-21T00:19:57.541Z,1022.86
2024-01-21T00:20:52.117Z,1022.87
2024-01-21T00:21:51.064Z,1022.84
2024-01-21T00:22:51.682Z,1022.83
2024-01-21T00:23:59.869Z,1022.86
2024-01-21T00:24:51.971Z,1022.86
2024-01-21T00:25:54.685Z,1022.83
2024-01-21T00:26:53.137Z,1022.84
2024-01-21T00:28:00.682Z,1022.79
2024-01-21T00:28:52.422Z,1022.74
2024-01-21T00:29:51.020Z,1022.72
2024-01-21T00:30:51.153Z,1022.68
2024-01-21T00:31:51.414Z,1022.72
2024-01-21T00:32:51.781Z,1022.65
2024-01-21T00:33:51.781Z,1022.69
2024-01-21T00:34:50.698Z,1022.66
2024-01-21T00:35:50.593Z,1022.63
2024-01-21T00:36:50.889Z,1022.62
2024-01-21T00:37:50.763Z,1022.60
2024-01-21T00:38:50.643Z,1022.60
2024-01-21T00:39:50.693Z,1022.57
2024-01-21T00:40:51.024Z,1022.61
2024-01-21T00:41:58.193Z,1022.56
2024-01-21T00:42:51.509Z,1022.55
2024-01-21T00:43:50.478Z,1022.56
2024-01-21T00:44:50.825Z,1022.57
2024-01-21T00:45:50.473Z,1022.51
2024-01-21T00:46:50.631Z,1022.56
2024-01-21T00:47:50.287Z,1022.52
2024-01-21T00:48:50.388Z,1022.54
2024-01-21T00:49:50.381Z,1022.55
2024-01-21T00:50:50.278Z,1022.49
2024-01-21T00:51:50.265Z,1022.48
2024-01-21T00:52:50.198Z,1022.46
2024-01-21T00:53:50.193Z,1022.39
2024-01-21T00:54:50.329Z,1022.38
2024-01-21T00:55:50.189Z,1022.41
2024-01-21T00:56:50.391Z,1022.39
2024-01-21T00:57:50.645Z,1022.41
2024-01-21T00:58:50.215Z,1022.46
2024-01-21T00:59:50.197Z,1022.32
2024-01-21T01:00:50.287Z,1022.37
2024-01-21T01:01:50.195Z,1022.33
2024-01-21T01:02:50.277Z,1022.35
2024-01-21T01:03:50.114Z,1022.34
2024-01-21T01:04:50.318Z,1022.32
2024-01-21T01:05:50.018Z,1022.29
2024-01-21T01:06:50.098Z,1022.29
2024-01-21T01:07:50.037Z,1022.19
2024-01-21T01:08:49.996Z,1022.17
2024-01-21T01:09:50.065Z,1022.13
2024-01-21T01:10:50.122Z,1022.13
2024-01-21T01:11:50.260Z,1022.12
2024-01-21T01:12:50.049Z,1022.12
2024-01-21T01:13:50.136Z,1022.16
2024-01-21T01:14:49.911Z,1022.16
2024-01-21T01:15:50.233Z,1022.24
2024-01-21T01:16:49.957Z,1022.17
2024-01-21T01:17:50.126Z,1022.15
2024-01-21T01:18:50.157Z,1022.20
2024-01-21T01:19:50.232Z,1022.24
2024-01-21T01:20:49.994Z,1022.26
2024-01-21T01:21:49.967Z,1022.28
2024-01-21T01:22:49.845Z,1022.28
2024-01-21T01:23:50.158Z,1022.20
2024-01-21T01:24:49.924Z,1022.18
2024-01-21T01:25:49.791Z,1022.22
2024-01-21T01:26:49.726Z,1022.20
2024-01-21T01:27:49.986Z,1022.17
2024-01-21T01:28:49.714Z,1022.16
2024-01-21T01:29:49.801Z,1022.15
2024-01-21T01:30:49.823Z,1022.16
2024-01-21T01:31:49.694Z,1022.12
2024-01-21T01:32:49.844Z,1022.19
2024-01-21T01:33:49.808Z,1022.16
2024-01-21T01:34:49.814Z,1022.17
2024-01-21T01:35:49.624Z,1022.27
2024-01-21T01:36:49.841Z,1022.26
2024-01-21T01:37:49.616Z,1022.28
2024-01-21T01:38:49.633Z,1022.27
2024-01-21T01:39:49.801Z,1022.24
2024-01-21T01:40:49.683Z,1022.27
2024-01-21T01:41:49.548Z,1022.22
2024-01-21T01:42:49.618Z,1022.23
2024-01-21T01:43:49.685Z,1022.18
2024-01-21T01:44:49.509Z,1022.14
2024-01-21T01:45:49.746Z,1022.14
2024-01-21T01:46:49.527Z,1022.08
2024-01-21T01:47:49.650Z,1022.10
2024-01-21T01:48:49.590Z,1022.11
2024-01-21T01:49:49.623Z,1022.08
2024-01-21T01:50:49.551Z,1022.05
2024-01-21T01:51:49.834Z,1021.99
2024-01-21T01:52:49.481Z,1022.03
2024-01-21T01:53:49.437Z,1021.96
2024-01-21T01:54:49.615Z,1021.92
2024-01-21T01:55:49.369Z,1021.93
2024-01-21T01:56:49.373Z,1021.88
2024-01-21T01:57:49.446Z,1021.87
2024-01-21T01:58:49.298Z,1021.89
2024-01-21T01:59:49.392Z,1021.83
2024-01-21T02:00:49.523Z,1021.80
2024-01-21T02:01:49.415Z,1021.80
2024-01-21T02:02:49.314Z,1021.82
2024-01-21T02:03:49.302Z,1021.74
2024-01-21T02:04:49.205Z,1021.76
2024-01-21T02:05:49.248Z,1021.73
2024-01-21T02:06:49.278Z,1021.74
2024-01-21T02:07:49.379Z,1021.69
2024-01-21T02:08:49.625Z,1021.70
2024-01-21T02:09:49.350Z,1021.71
2024-01-21T02:10:49.157Z,1021.64
2024-01-21T02:11:49.361Z,1021.72
2024-01-21T02:12:49.323Z,1021.69
2024-01-21T02:13:49.198Z,1021.65
2024-01-21T02:14:49.310Z,1021.66
2024-01-21T02:15:49.206Z,1021.63
2024-01-21T02:16:49.249Z,1021.63
2024-01-21T02:17:49.279Z,1021.67
2024-01-21T02:18:49.250Z,1021.63
2024-01-21T02:19:49.225Z,1021.63
2024-01-21T02:20:49.153Z,1021.72
2024-01-21T02:21:49.325Z,1021.64
2024-01-21T02:22:49.066Z,1021.68
2024-01-21T02:23:49.015Z,1021.66
2024-01-21T02:24:49.152Z,1021.63
2024-01-21T02:25:49.212Z,1021.64
2024-01-21T02:26:49.138Z,1021.66
2024-01-21T02:27:49.116Z,1021.66
2024-01-21T02:28:49.168Z,1021.67
2024-01-21T02:29:49.139Z,1021.68
2024-01-21T02:30:49.164Z,1021.69
2024-01-21T02:31:49.330Z,1021.72
2024-01-21T02:32:49.056Z,1021.73
2024-01-21T02:33:48.916Z,1021.73
2024-01-21T02:34:49.084Z,1021.67
2024-01-21T02:35:49.609Z,1021.70
2024-01-21T02:36:48.976Z,1021.72
2024-01-21T02:37:48.887Z,1021.72
2024-01-21T02:38:48.834Z,1021.71
2024-01-21T02:39:48.833Z,1021.73
2024-01-21T02:40:49.272Z,1021.68
2024-01-21T02:41:48.767Z,1021.71
2024-01-21T02:42:48.785Z,1021.68
2024-01-21T02:43:48.761Z,1021.66
2024-01-21T02:44:49.184Z,1021.61
2024-01-21T02:45:49.508Z,1021.63
2024-01-21T02:46:49.319Z,1021.63
2024-01-21T02:47:48.746Z,1021.53
2024-01-21T02:48:48.789Z,1021.54
2024-01-21T02:49:48.874Z,1021.61
2024-01-21T02:50:48.828Z,1021.60
2024-01-21T02:51:48.739Z,1021.62
2024-01-21T02:52:48.842Z,1021.61
2024-01-21T02:53:48.813Z,1021.58
2024-01-21T02:54:48.812Z,1021.57
2024-01-21T02:55:48.690Z,1021.59
2024-01-21T02:56:48.545Z,1021.55
2024-01-21T02:57:50.761Z,1021.54
2024-01-21T02:58:48.579Z,1021.48
2024-01-21T02:59:48.853Z,1021.48
2024-01-21T03:00:48.945Z,1021.45
2024-01-21T03:01:48.466Z,1021.39
2024-01-21T03:02:48.519Z,1021.36
2024-01-21T03:03:48.534Z,1021.30
2024-01-21T03:04:48.563Z,1021.31
2024-01-21T03:05:48.493Z,1021.30
2024-01-21T03:06:48.551Z,1021.31
2024-01-21T03:07:48.523Z,1021.27
2024-01-21T03:08:48.408Z,1021.27
2024-01-21T03:09:48.568Z,1021.27
2024-01-21T03:10:48.859Z,1021.23
2024-01-21T03:11:48.428Z,1021.26
2024-01-21T03:12:48.438Z,1021.25
2024-01-21T03:13:48.446Z,1021.21
2024-01-21T03:14:48.425Z,1021.29
2024-01-21T03:15:48.341Z,1021.30
2024-01-21T03:16:48.364Z,1021.32
2024-01-21T03:17:48.272Z,1021.35
2024-01-21T03:18:48.420Z,1021.32
2024-01-21T03:19:48.524Z,1021.27
2024-01-21T03:20:48.278Z,1021.27
2024-01-21T03:21:48.316Z,1021.30
2024-01-21T03:22:48.207Z,1021.28
2024-01-21T03:23:48.221Z,1021.27
2024-01-21T03:24:48.281Z,1021.22
2024-01-21T03:25:48.278Z,1021.22
2024-01-21T03:26:48.243Z,1021.23
2024-01-21T03:27:49.968Z,1021.16
2024-01-21T03:28:48.200Z,1021.16
2024-01-21T03:29:48.539Z,1021.12
2024-01-21T03:30:48.240Z,1021.09
2024-01-21T03:31:48.073Z,1021.09
2024-01-21T03:32:48.085Z,1021.06
2024-01-21T03:33:48.488Z,1021.04
2024-01-21T03:34:48.106Z,1021.08
2024-01-21T03:35:48.066Z,1021.09
2024-01-21T03:36:48.228Z,1021.09
2024-01-21T03:37:48.112Z,1021.05
2024-01-21T03:38:47.962Z,1021.07
2024-01-21T03:39:48.251Z,1021.08
2024-01-21T03:40:47.949Z,1021.10
2024-01-21T03:41:47.880Z,1021.04
2024-01-21T03:42:47.923Z,1021.06
2024-01-21T03:43:47.917Z,1021.06
2024-01-21T03:44:47.901Z,1021.04
2024-01-21T03:45:47.871Z,1021.01
2024-01-21T03:46:47.855Z,1021.07
2024-01-21T03:47:47.858Z,1021.05
2024-01-21T03:48:47.898Z,1021.02
2024-01-21T03:49:47.980Z,1020.97
2024-01-21T03:50:47.897Z,1020.96
2024-01-21T03:51:47.894Z,1020.89
2024-01-21T03:52:47.800Z,1020.90
2024-01-21T03:53:47.812Z,1020.90
2024-01-21T03:54:47.903Z,1020.88
2024-01-21T03:55:47.741Z,1020.82
2024-01-21T03:56:47.717Z,1020.87
2024-01-21T03:57:47.692Z,1020.88
2024-01-21T03:58:47.716Z,1020.92
2024-01-21T03:59:47.813Z,1020.92
2024-01-21T04:00:47.675Z,1020.89
2024-01-21T04:01:47.754Z,1020.89
2024-01-21T04:02:47.611Z,1020.86
2024-01-21T04:03:48.042Z,1020.87
2024-01-21T04:04:47.644Z,1020.86
2024-01-21T04:05:47.671Z,1020.89
2024-01-21T04:06:47.611Z,1020.88
2024-01-21T04:07:47.715Z,1020.86
2024-01-21T04:08:47.666Z,1020.82
2024-01-21T04:09:47.557Z,1020.81
2024-01-21T04:10:47.606Z,1020.80
2024-01-21T04:11:47.562Z,1020.77
2024-01-21T04:12:47.500Z,1020.74
2024-01-21T04:13:47.509Z,1020.78
2024-01-21T04:14:47.586Z,1020.72
2024-01-21T04:15:47.544Z,1020.78
2024-01-21T04:16:47.550Z,1020.73
2024-01-21T04:17:47.486Z,1020.74
2024-01-21T04:18:47.613Z,1020.70
2024-01-21T04:19:47.479Z,1020.70
2024-01-21T04:20:47.358Z,1020.74
2024-01-21T04:21:47.466Z,1020.74
2024-01-21T04:22:47.336Z,1020.62
2024-01-21T04:23:47.330Z,1020.61
2024-01-21T04:24:47.407Z,1020.62
2024-01-21T04:25:47.412Z,1020.55
2024-01-21T04:26:47.271Z,1020.53
2024-01-21T04:27:47.331Z,1020.47
2024-01-21T04:28:47.277Z,1020.41
2024-01-21T04:29:47.227Z,1020.40
2024-01-21T04:30:47.325Z,1020.38
2024-01-21T04:31:47.210Z,1020.35
2024-01-21T04:32:47.310Z,1020.31
2024-01-21T04:33:47.276Z,1020.33
2024-01-21T04:34:47.389Z,1020.29
2024-01-21T04:35:47.182Z,1020.33
2024-01-21T04:36:47.239Z,1020.28
2024-01-21T04:37:47.304Z,1020.28
2024-01-21T04:38:47.291Z,1020.28
2024-01-21T04:39:47.127Z,1020.18
2024-01-21T04:40:47.261Z,1020.17
2024-01-21T04:41:47.072Z,1020.19
2024-01-21T04:42:47.140Z,1020.18
2024-01-21T04:43:47.279Z,1020.22
2024-01-21T04:44:47.549Z,1020.25
2024-01-21T04:45:47.094Z,1020.21
2024-01-21T04:46:47.014Z,1020.15
2024-01-21T04:47:47.641Z,1020.14
2024-01-21T04:48:48.148Z,1020.04
2024-01-21T04:49:47.088Z,1020.01
2024-01-21T04:50:47.329Z,1019.98
2024-01-21T04:51:51.474Z,1020.00
2024-01-21T04:52:50.950Z,1019.97
2024-01-21T04:53:48.638Z,1019.97
2024-01-21T04:54:49.109Z,1019.91
2024-01-21T04:55:47.837Z,1019.93
2024-01-21T04:56:47.697Z,1019.93
2024-01-21T04:57:47.441Z,1019.82
2024-01-21T04:58:47.589Z,1019.83
2024-01-21T04:59:50.618Z,1019.80
2024-01-21T05:00:48.268Z,1019.77
2024-01-21T05:01:51.142Z,1019.74
2024-01-21T05:02:50.451Z,1019.71
2024-01-21T05:03:48.193Z,1019.74
2024-01-21T05:04:47.114Z,1019.71
2024-01-21T05:05:53.779Z,1019.74
2024-01-21T05:06:48.214Z,1019.73
2024-01-21T05:07:57.301Z,1019.72
2024-01-21T05:08:47.876Z,1019.69
2024-01-21T05:09:47.455Z,1019.71
2024-01-21T05:10:47.542Z,1019.80
2024-01-21T05:11:51.213Z,1019.79
2024-01-21T05:12:48.694Z,1019.70
2024-01-21T05:13:51.866Z,1019.71
2024-01-21T05:14:48.537Z,1019.72
2024-01-21T05:15:47.034Z,1019.69
2024-01-21T05:16:48.597Z,1019.77
2024-01-21T05:17:47.467Z,1019.72
2024-01-21T05:18:47.700Z,1019.76
2024-01-21T05:19:51.930Z,1019.75
2024-01-21T05:20:48.512Z,1019.71
2024-01-21T05:21:48.634Z,1019.69
2024-01-21T05:22:48.943Z,1019.62
2024-01-21T05:23:47.301Z,1019.65
2024-01-21T05:24:47.561Z,1019.64
2024-01-21T05:25:46.984Z,1019.70
2024-01-21T05:26:46.516Z,1019.70
2024-01-21T05:27:49.191Z,1019.74
2024-01-21T05:28:46.727Z,1019.67
2024-01-21T05:29:46.563Z,1019.69
2024-01-21T05:30:47.933Z,1019.62
2024-01-21T05:31:48.835Z,1019.63
2024-01-21T05:32:55.877Z,1019.52
2024-01-21T05:33:47.521Z,1019.49
2024-01-21T05:34:46.677Z,1019.50
2024-01-21T05:35:48.881Z,1019.47
2024-01-21T05:36:47.287Z,1019.45
2024-01-21T05:37:50.509Z,1019.43
2024-01-21T05:38:46.998Z,1019.45
2024-01-21T05:39:50.234Z,1019.46
2024-01-21T05:40:47.588Z,1019.44
2024-01-21T05:41:48.688Z,1019.36
2024-01-21T05:42:48.032Z,1019.34
2024-01-21T05:43:49.221Z,1019.19
2024-01-21T05:44:46.726Z,1019.25
2024-01-21T05:45:47.327Z,1019.21
2024-01-21T05:46:47.367Z,1019.24
2024-01-21T05:47:47.265Z,1019.19
2024-01-21T05:48:51.402Z,1019.18
2024-01-21T05:49:49.269Z,1019.16
2024-01-21T05:50:47.472Z,1019.13
2024-01-21T05:51:46.316Z,1019.08
2024-01-21T05:52:47.255Z,1019.04
2024-01-21T05:53:46.267Z,1018.97
2024-01-21T05:54:47.981Z,1018.97
2024-01-21T05:55:46.221Z,1018.95
2024-01-21T05:56:50.223Z,1018.86
2024-01-21T05:57:49.158Z,1018.91
2024-01-21T05:58:48.582Z,1018.79
2024-01-21T05:59:47.185Z,1018.78
2024-01-21T06:00:47.028Z,1018.79
2024-01-21T06:01:48.455Z,1018.77
2024-01-21T06:02:47.095Z,1018.81
2024-01-21T06:03:51.774Z,1018.76
2024-01-21T06:04:46.952Z,1018.86
2024-01-21T06:05:47.370Z,1018.81
2024-01-21T06:06:46.077Z,1018.83
2024-01-21T06:08:11.504Z,1018.79
2024-01-21T06:08:48.105Z,1018.73
2024-01-21T06:09:46.433Z,1018.77
2024-01-21T06:10:51.182Z,1018.66
2024-01-21T06:11:47.024Z,1018.73
2024-01-21T06:12:48.443Z,1018.75
2024-01-21T06:13:50.890Z,1018.56
2024-01-21T06:14:49.233Z,1018.63
2024-01-21T06:15:53.649Z,1018.68
2024-01-21T06:16:53.311Z,1018.66
2024-01-21T06:17:46.486Z,1018.56
2024-01-21T06:19:08.185Z,1018.64
2024-01-21T06:19:47.410Z,1018.59
2024-01-21T06:20:48.288Z,1018.58
2024-01-21T06:21:47.446Z,1018.48
2024-01-21T06:22:48.679Z,1018.56
2024-01-21T06:23:47.035Z,1018.61
2024-01-21T06:24:50.319Z,1018.58
2024-01-21T06:25:45.906Z,1018.58
2024-01-21T06:26:52.009Z,1018.51
2024-01-21T06:27:47.564Z,1018.57
2024-01-21T06:28:45.964Z,1018.53
2024-01-21T06:29:46.110Z,1018.44
2024-01-21T06:30:46.317Z,1018.42
2024-01-21T06:31:45.718Z,1018.38
2024-01-21T06:32:53.953Z,1018.32
2024-01-21T06:33:47.826Z,1018.34
2024-01-21T06:34:45.706Z,1018.31
2024-01-21T06:35:45.608Z,1018.30
2024-01-21T06:36:45.802Z,1018.28
2024-01-21T06:37:45.618Z,1018.22
2024-01-21T06:38:45.639Z,1018.25
2024-01-21T06:39:54.622Z,1018.23
2024-01-21T06:40:46.493Z,1018.20
2024-01-21T06:41:45.470Z,1018.17
2024-01-21T06:42:45.509Z,1018.20
2024-01-21T06:43:45.437Z,1018.12
2024-01-21T06:44:45.407Z,1018.09
2024-01-21T06:45:45.479Z,1018.04
2024-01-21T06:46:45.400Z,1018.06
2024-01-21T06:47:45.618Z,1018.07
2024-01-21T06:48:45.483Z,1018.09
2024-01-21T06:49:45.382Z,1018.07
2024-01-21T06:50:45.365Z,1018.06
2024-01-21T06:51:45.356Z,1018.06
2024-01-21T06:52:45.332Z,1018.09
2024-01-21T06:53:45.349Z,1018.03
2024-01-21T06:54:45.395Z,1018.06
2024-01-21T06:55:45.280Z,1018.04
2024-01-21T06:56:45.267Z,1018.03
2024-01-21T06:57:45.330Z,1017.98
2024-01-21T06:58:45.229Z,1018.07
2024-01-21T06:59:45.220Z,1018.03
2024-01-21T07:00:45.310Z,1018.02
2024-01-21T07:01:45.203Z,1017.92
2024-01-21T07:02:45.157Z,1017.94
2024-01-21T07:03:45.180Z,1017.95
2024-01-21T07:04:45.161Z,1017.97
2024-01-21T07:05:45.218Z,1017.97
2024-01-21T07:06:45.265Z,1017.96
2024-01-21T07:07:45.772Z,1017.97
2024-01-21T07:08:45.104Z,1017.95
2024-01-21T07:09:45.179Z,1018.03
2024-01-21T07:10:45.073Z,1017.98
2024-01-21T07:11:45.120Z,1017.92
2024-01-21T07:12:45.063Z,1017.91
2024-01-21T07:13:45.063Z,1018.02
2024-01-21T07:14:44.994Z,1017.94
2024-01-21T07:15:45.115Z,1017.99
2024-01-21T07:16:44.980Z,1017.98
2024-01-21T07:17:45.093Z,1017.99
2024-01-21T07:18:45.155Z,1017.99
2024-01-21T07:19:45.197Z,1017.94
2024-01-21T07:20:45.038Z,1017.95
2024-01-21T07:21:44.929Z,1017.89
2024-01-21T07:22:44.935Z,1017.87
2024-01-21T07:23:44.956Z,1017.88
2024-01-21T07:24:44.909Z,1017.84
2024-01-21T07:25:44.956Z,1017.86
2024-01-21T07:26:44.850Z,1017.84
2024-01-21T07:27:45.107Z,1017.89
2024-01-21T07:28:44.825Z,1017.84
2024-01-21T07:29:45.099Z,1017.79
2024-01-21T07:30:44.984Z,1017.81
2024-01-21T07:31:44.852Z,1017.88
2024-01-21T07:32:44.837Z,1017.82
2024-01-21T07:33:44.979Z,1017.76
2024-01-21T07:34:44.884Z,1017.85
2024-01-21T07:35:44.730Z,1017.71
2024-01-21T07:36:44.747Z,1017.73
2024-01-21T07:37:44.734Z,1017.70
2024-01-21T07:38:44.721Z,1017.73
2024-01-21T07:39:44.718Z,1017.60
2024-01-21T07:40:44.710Z,1017.61
2024-01-21T07:41:44.663Z,1017.49
2024-01-21T07:42:44.680Z,1017.52
2024-01-21T07:43:44.642Z,1017.44
2024-01-21T07:44:44.615Z,1017.45
2024-01-21T07:45:44.658Z,1017.44
2024-01-21T07:46:44.601Z,1017.49
2024-01-21T07:47:44.823Z,1017.46
2024-01-21T07:48:44.651Z,1017.46
2024-01-21T07:49:44.630Z,1017.38
2024-01-21T07:50:44.597Z,1017.37
2024-01-21T07:51:44.551Z,1017.23
2024-01-21T07:52:44.579Z,1017.25
2024-01-21T07:53:44.650Z,1017.24
2024-01-21T07:54:45.048Z,1017.26
2024-01-21T07:55:44.486Z,1017.17
2024-01-21T07:56:44.498Z,1017.17
2024-01-21T07:57:44.489Z,1017.22
2024-01-21T07:58:44.513Z,1017.16
2024-01-21T07:59:44.478Z,1017.18
2024-01-21T08:00:44.505Z,1017.22
2024-01-21T08:01:44.465Z,1017.32
2024-01-21T08:02:44.378Z,1017.17
2024-01-21T08:03:44.554Z,1017.23
2024-01-21T08:04:44.365Z,1017.12
2024-01-21T08:05:44.385Z,1017.23
2024-01-21T08:06:44.469Z,1017.21
2024-01-21T08:07:44.326Z,1017.18
2024-01-21T08:08:44.357Z,1017.25
2024-01-21T08:09:44.414Z,1017.19
2024-01-21T08:10:44.295Z,1017.17
2024-01-21T08:11:44.228Z,1017.12
2024-01-21T08:12:44.266Z,1017.14
2024-01-21T08:13:44.277Z,1017.05
2024-01-21T08:14:44.207Z,1017.09
2024-01-21T08:15:44.498Z,1016.97
2024-01-21T08:16:44.177Z,1016.98
2024-01-21T08:17:44.202Z,1016.98
2024-01-21T08:18:44.188Z,1016.91
2024-01-21T08:19:44.410Z,1016.92
2024-01-21T08:20:44.267Z,1016.83
2024-01-21T08:21:44.167Z,1016.87
2024-01-21T08:22:44.169Z,1016.83
2024-01-21T08:23:44.155Z,1016.71
2024-01-21T08:24:44.207Z,1016.68
2024-01-21T08:25:44.091Z,1016.63
2024-01-21T08:26:44.096Z,1016.67
2024-01-21T08:27:44.104Z,1016.58
2024-01-21T08:28:44.090Z,1016.58
2024-01-21T08:29:44.054Z,1016.52
2024-01-21T08:30:44.077Z,1016.49
2024-01-21T08:31:44.055Z,1016.43
2024-01-21T08:32:44.080Z,1016.48
2024-01-21T08:33:44.056Z,1016.50
2024-01-21T08:34:44.038Z,1016.41
2024-01-21T08:35:43.936Z,1016.43
2024-01-21T08:36:43.951Z,1016.37
2024-01-21T08:37:43.912Z,1016.26
2024-01-21T08:38:43.895Z,1016.20
2024-01-21T08:39:46.372Z,1016.22
2024-01-21T08:40:43.888Z,1016.19
2024-01-21T08:41:43.969Z,1016.09
2024-01-21T08:42:43.938Z,1016.03
2024-01-21T08:43:43.817Z,1016.01
2024-01-21T08:44:43.854Z,1015.95
2024-01-21T08:45:43.859Z,1015.94
2024-01-21T08:46:43.754Z,1015.93
2024-01-21T08:47:43.805Z,1015.91
2024-01-21T08:48:43.851Z,1015.93
2024-01-21T08:49:45.421Z,1015.81
2024-01-21T08:50:43.709Z,1016.00
2024-01-21T08:51:43.734Z,1015.91
2024-01-21T08:52:44.237Z,1015.87
2024-01-21T08:53:43.724Z,1015.84
2024-01-21T08:54:43.701Z,1015.81
2024-01-21T08:55:43.679Z,1015.85
2024-01-21T08:56:43.680Z,1015.92
2024-01-21T08:57:43.729Z,1015.87
2024-01-21T08:58:43.666Z,1015.87
2024-01-21T08:59:43.660Z,1015.75
2024-01-21T09:00:43.726Z,1015.73
2024-01-21T09:01:43.574Z,1015.65
2024-01-21T09:02:43.544Z,1015.68
2024-01-21T09:03:43.591Z,1015.62
2024-01-21T09:04:43.544Z,1015.75
2024-01-21T09:05:43.642Z,1015.83
2024-01-21T09:06:43.837Z,1015.86
2024-01-21T09:07:43.488Z,1015.87
2024-01-21T09:08:43.457Z,1015.97
2024-01-21T09:09:43.458Z,1016.00
2024-01-21T09:10:43.431Z,1016.16
2024-01-21T09:11:43.476Z,1016.15
2024-01-21T09:12:43.755Z,1016.10
2024-01-21T09:13:43.436Z,1016.26
2024-01-21T09:14:43.397Z,1016.24
2024-01-21T09:15:43.478Z,1016.35
2024-01-21T09:16:43.386Z,1016.37
2024-01-21T09:17:43.449Z,1016.31
2024-01-21T09:18:43.467Z,1016.25
2024-01-21T09:19:43.316Z,1016.22
2024-01-21T09:20:43.295Z,1016.20
2024-01-21T09:21:43.430Z,1016.23
2024-01-21T09:22:43.308Z,1016.26
2024-01-21T09:23:43.275Z,1016.20
2024-01-21T09:24:43.292Z,1016.23
2024-01-21T09:25:43.253Z,1016.13
2024-01-21T09:26:43.211Z,1016.09
2024-01-21T09:27:43.240Z,1015.95
2024-01-21T09:28:43.174Z,1015.89
2024-01-21T09:29:43.180Z,1015.89
2024-01-21T09:30:43.211Z,1015.84
2024-01-21T09:31:43.163Z,1015.73
2024-01-21T09:32:43.140Z,1015.69
2024-01-21T09:33:43.219Z,1015.50
2024-01-21T09:34:43.360Z,1015.40
2024-01-21T09:35:44.168Z,1015.24
2024-01-21T09:36:43.245Z,1015.16
2024-01-21T09:37:43.027Z,1015.43
2024-01-21T09:38:43.088Z,1015.50
2024-01-21T09:39:43.294Z,1015.54
2024-01-21T09:40:43.152Z,1015.53
2024-01-21T09:41:43.124Z,1015.46
2024-01-21T09:42:43.404Z,1015.42
2024-01-21T09:43:43.165Z,1015.34
2024-01-21T09:44:43.191Z,1015.54
2024-01-21T09:45:43.330Z,1015.92
2024-01-21T09:46:43.154Z,1015.83
2024-01-21T09:47:43.076Z,1015.79
2024-01-21T09:48:43.113Z,1015.81
2024-01-21T09:49:43.137Z,1015.78
2024-01-21T09:50:42.927Z,1015.82
2024-01-21T09:51:43.000Z,1015.95
2024-01-21T09:52:43.044Z,1015.92
2024-01-21T09:53:42.982Z,1015.82
2024-01-21T09:54:43.075Z,1015.77
2024-01-21T09:55:42.927Z,1015.86
2024-01-21T09:56:42.888Z,1015.85
2024-01-21T09:57:43.033Z,1015.91
2024-01-21T09:58:43.479Z,1015.99
2024-01-21T09:59:43.126Z,1015.78
2024-01-21T10:00:43.364Z,1015.78
2024-01-21T10:01:42.916Z,1015.71
2024-01-21T10:02:42.903Z,1015.57
2024-01-21T10:03:42.884Z,1015.55
2024-01-21T10:04:43.022Z,1015.70
2024-01-21T10:05:42.983Z,1015.85
2024-01-21T10:06:43.049Z,1015.87
2024-01-21T10:07:42.761Z,1015.79
2024-01-21T10:08:42.783Z,1015.83
2024-01-21T10:09:42.754Z,1015.90
2024-01-21T10:10:42.668Z,1015.79
2024-01-21T10:11:43.331Z,1015.70
2024-01-21T10:12:42.853Z,1015.68
2024-01-21T10:13:42.972Z,1015.71
2024-01-21T10:14:42.690Z,1015.67
2024-01-21T10:15:42.770Z,1015.91
2024-01-21T10:16:42.554Z,1015.87
2024-01-21T10:17:42.688Z,1015.77
2024-01-21T10:18:42.883Z,1015.72
2024-01-21T10:19:42.637Z,1015.78
2024-01-21T10:20:42.508Z,1015.72
2024-01-21T10:21:42.665Z,1015.73
2024-01-21T10:22:42.628Z,1015.72
2024-01-21T10:23:42.541Z,1015.71
2024-01-21T10:24:42.632Z,1015.71
2024-01-21T10:25:42.424Z,1015.68
2024-01-21T10:26:42.501Z,1015.59
2024-01-21T10:27:42.569Z,1015.45
2024-01-21T10:28:42.494Z,1015.52
2024-01-21T10:29:42.708Z,1015.48
2024-01-21T10:30:42.506Z,1015.44
2024-01-21T10:31:42.430Z,1015.48
2024-01-21T10:32:42.714Z,1015.42
2024-01-21T10:33:43.361Z,1015.37
2024-01-21T10:34:42.808Z,1015.43
2024-01-21T10:35:42.422Z,1015.43
2024-01-21T10:36:42.408Z,1015.27
2024-01-21T10:37:43.120Z,1015.23
2024-01-21T10:38:42.455Z,1015.25
2024-01-21T10:39:42.254Z,1015.40
2024-01-21T10:40:42.293Z,1015.25
2024-01-21T10:41:42.300Z,1015.30
2024-01-21T10:42:42.454Z,1015.21
2024-01-21T10:43:42.508Z,1015.17
2024-01-21T10:44:42.510Z,1015.24
2024-01-21T10:45:42.210Z,1015.17
2024-01-21T10:46:42.099Z,1015.22
2024-01-21T10:47:42.456Z,1015.13
2024-01-21T10:48:42.251Z,1015.15
2024-01-21T10:49:42.592Z,1015.17
2024-01-21T10:50:42.125Z,1015.28
2024-01-21T10:51:42.138Z,1015.28
2024-01-21T10:52:42.054Z,1015.28
2024-01-21T10:53:42.098Z,1015.32
2024-01-21T10:54:42.024Z,1015.36
2024-01-21T10:55:42.018Z,1015.24
2024-01-21T10:56:41.971Z,1015.31
2024-01-21T10:57:42.043Z,1015.23
2024-01-21T10:58:41.908Z,1015.33
2024-01-21T10:59:41.913Z,1015.34
2024-01-21T11:00:42.122Z,1015.27
2024-01-21T11:01:42.100Z,1015.25
2024-01-21T11:02:42.064Z,1015.24
2024-01-21T11:03:42.888Z,1015.35
2024-01-21T11:04:42.013Z,1015.30
2024-01-21T11:05:41.980Z,1015.27
2024-01-21T11:06:41.878Z,1015.25
2024-01-21T11:07:41.987Z,1015.16
2024-01-21T11:08:42.097Z,1015.07
2024-01-21T11:09:41.816Z,1015.03
2024-01-21T11:10:41.948Z,1015.03
2024-01-21T11:11:41.775Z,1015.06
2024-01-21T11:12:41.773Z,1015.04
2024-01-21T11:13:41.758Z,1014.94
2024-01-21T11:14:41.738Z,1014.93
2024-01-21T11:15:42.016Z,1014.98
2024-01-21T11:16:42.147Z,1014.97
2024-01-21T11:17:41.921Z,1014.97
2024-01-21T11:18:42.807Z,1014.98
2024-01-21T11:19:41.989Z,1014.96
2024-01-21T11:20:41.840Z,1014.86
2024-01-21T11:21:42.782Z,1014.87
2024-01-21T11:22:41.925Z,1014.90
2024-01-21T11:23:41.833Z,1014.84
2024-01-21T11:24:41.830Z,1014.87
2024-01-21T11:25:41.994Z,1014.91
2024-01-21T11:26:41.865Z,1014.87
2024-01-21T11:27:41.988Z,1014.84
2024-01-21T11:28:41.823Z,1014.84
2024-01-21T11:29:41.952Z,1014.82
2024-01-21T11:30:41.770Z,1014.73
2024-01-21T11:31:41.696Z,1014.68
2024-01-21T11:32:41.720Z,1014.79
2024-01-21T11:33:45.141Z,1014.84
2024-01-21T11:34:41.752Z,1014.80
2024-01-21T11:35:41.617Z,1014.80
2024-01-21T11:36:41.660Z,1014.84
2024-01-21T11:37:41.434Z,1014.84
2024-01-21T11:38:41.524Z,1014.97
2024-01-21T11:39:41.493Z,1014.88
2024-01-21T11:40:41.396Z,1014.93
2024-01-21T11:41:41.380Z,1014.94
2024-01-21T11:42:41.361Z,1014.92
2024-01-21T11:43:41.350Z,1014.92
2024-01-21T11:44:41.451Z,1014.98
2024-01-21T11:45:41.386Z,1014.95
2024-01-21T11:46:41.472Z,1014.89
2024-01-21T11:47:41.385Z,1014.85
2024-01-21T11:48:41.361Z,1014.84
2024-01-21T11:49:41.382Z,1014.78
2024-01-21T11:50:41.205Z,1014.80
2024-01-21T11:51:41.290Z,1014.87
2024-01-21T11:52:41.513Z,1014.92
2024-01-21T11:53:41.236Z,1015.01
2024-01-21T11:54:41.276Z,1015.05
2024-01-21T11:55:42.047Z,1015.04
2024-01-21T11:56:43.869Z,1014.99
2024-01-21T11:57:42.405Z,1014.96
2024-01-21T11:58:41.106Z,1014.90
2024-01-21T11:59:41.155Z,1014.84
2024-01-21T12:00:41.170Z,1014.81
2024-01-21T12:01:41.309Z,1014.80
2024-01-21T12:02:41.443Z,1014.70
2024-01-21T12:03:41.152Z,1014.65
2024-01-21T12:04:41.059Z,1014.75
2024-01-21T12:05:41.348Z,1014.78